createdAt,value
2023-03-20T00:00:54.787Z,50.70
2023-03-20T00:06:00.036Z,50.60
2023-03-20T00:11:06.272Z,50.70
2023-03-20T00:16:13.098Z,50.70
2023-03-20T00:21:19.433Z,50.60
2023-03-20T00:26:26.613Z,50.60
2023-03-20T00:31:33.286Z,50.70
2023-03-20T00:36:37.033Z,51.10
2023-03-20T00:41:44.980Z,51.30
2023-03-20T00:46:52.269Z,51.70
2023-03-20T00:51:56.166Z,52.20
2023-03-20T00:57:02.243Z,52.40
2023-03-20T01:02:07.489Z,52.50
2023-03-20T01:07:16.400Z,53.40
2023-03-20T01:12:20.066Z,53.60
2023-03-20T01:17:27.166Z,53.90
2023-03-20T01:22:30.720Z,53.80
2023-03-20T01:27:34.141Z,54.70
2023-03-20T01:32:38.905Z,55.90
2023-03-20T01:37:42.837Z,56.30
2023-03-20T01:42:46.225Z,56.90
2023-03-20T01:47:51.360Z,56.30
2023-03-20T01:53:09.845Z,56.50
2023-03-20T01:58:18.138Z,57.70
2023-03-20T02:03:24.290Z,58.50
2023-03-20T02:08:30.776Z,59.50
2023-03-20T02:13:35.697Z,60.90
2023-03-20T02:18:42.660Z,60.30
2023-03-20T02:24:23.838Z,62.00
2023-03-20T02:30:15.447Z,62.00
2023-03-20T02:36:01.916Z,62.10
2023-03-20T02:41:15.154Z,61.90
2023-03-20T02:46:23.210Z,61.90
2023-03-20T02:51:36.443Z,62.90
2023-03-20T02:56:53.070Z,62.20
2023-03-20T03:02:03.507Z,64.00
2023-03-20T03:07:10.862Z,64.50
2023-03-20T03:12:21.374Z,64.40
2023-03-20T03:17:27.896Z,64.60
2023-03-20T03:22:31.926Z,64.90
2023-03-20T03:27:39.397Z,64.60
2023-03-20T03:32:47.512Z,64.40
2023-03-20T03:38:00.095Z,65.00
2023-03-20T03:43:14.133Z,64.70
2023-03-20T03:48:20.510Z,64.90
2023-03-20T03:53:28.787Z,65.10
2023-03-20T03:58:38.952Z,65.80
2023-03-20T04:03:47.624Z,65.90
2023-03-20T04:08:51.865Z,65.30
2023-03-20T04:13:57.367Z,64.60
2023-03-20T04:19:00.810Z,64.50
2023-03-20T04:24:04.342Z,64.40
2023-03-20T04:29:09.204Z,65.10
2023-03-20T04:34:12.874Z,66.20
2023-03-20T04:39:16.592Z,67.00
2023-03-20T04:44:21.793Z,67.40
2023-03-20T04:49:25.215Z,67.40
2023-03-20T04:54:28.762Z,68.50
2023-03-20T04:59:34.009Z,68.40
2023-03-20T05:04:37.502Z,68.80
2023-03-20T05:09:41.189Z,68.90
2023-03-20T05:14:45.948Z,68.50
2023-03-20T05:19:49.910Z,69.00
2023-03-20T05:24:53.657Z,68.70
2023-03-20T05:29:58.391Z,68.40
2023-03-20T05:35:02.032Z,68.40
2023-03-20T05:40:07.070Z,70.10
2023-03-20T05:45:12.663Z,69.10
2023-03-20T05:50:16.972Z,68.40
2023-03-20T05:55:20.349Z,67.80
2023-03-20T06:00:26.315Z,67.50
2023-03-20T06:05:29.757Z,67.40
2023-03-20T06:10:33.571Z,67.20
2023-03-20T06:15:39.019Z,67.50
2023-03-20T06:20:42.567Z,68.10
2023-03-20T06:25:46.191Z,68.40
2023-03-20T06:30:54.494Z,69.60
2023-03-20T06:35:58.027Z,69.70
2023-03-20T06:41:01.531Z,69.70
2023-03-20T06:46:07.426Z,69.20
2023-03-20T06:51:10.984Z,69.50
2023-03-20T06:56:14.394Z,70.30
2023-03-20T07:01:20.772Z,70.30
2023-03-20T07:06:24.298Z,70.20
2023-03-20T07:11:28.557Z,70.30
2023-03-20T07:16:33.662Z,71.00
2023-03-20T07:21:37.182Z,71.20
2023-03-20T07:26:41.277Z,71.60
2023-03-20T07:31:46.399Z,70.10
2023-03-20T07:36:49.867Z,69.60
2023-03-20T07:41:54.992Z,69.50
2023-03-20T07:47:00.452Z,69.60
2023-03-20T07:52:04.037Z,69.40
2023-03-20T07:57:08.570Z,69.40
2023-03-20T08:02:16.439Z,68.90
2023-03-20T08:07:19.987Z,68.80
2023-03-20T08:12:23.694Z,68.60
2023-03-20T08:17:28.806Z,68.10
2023-03-20T08:22:32.564Z,67.60
2023-03-20T08:27:36.728Z,67.40
2023-03-20T08:32:42.345Z,67.10
2023-03-20T08:37:46.569Z,67.00
2023-03-20T08:42:50.408Z,67.10
2023-03-20T08:47:56.732Z,66.80
2023-03-20T08:53:01.210Z,66.80
2023-03-20T08:58:04.723Z,66.90
2023-03-20T09:03:14.866Z,66.90
2023-03-20T09:08:18.612Z,67.20
2023-03-20T09:13:27.673Z,67.00
2023-03-20T09:18:33.126Z,67.10
2023-03-20T09:23:37.144Z,67.40
2023-03-20T09:28:40.530Z,67.60
2023-03-20T09:33:45.484Z,67.90
2023-03-20T09:38:48.889Z,68.60
2023-03-20T09:44:06.872Z,69.30
2023-03-20T09:49:20.174Z,69.30
2023-03-20T09:54:28.192Z,70.10
2023-03-20T09:59:35.572Z,70.20
2023-03-20T10:04:41.486Z,70.70
2023-03-20T10:09:46.123Z,71.10
2023-03-20T10:14:58.185Z,70.60
2023-03-20T10:20:11.301Z,70.70
2023-03-20T10:25:25.829Z,70.50
2023-03-20T10:30:49.698Z,70.60
2023-03-20T10:36:06.181Z,70.90
2023-03-20T10:41:15.315Z,70.60
2023-03-20T10:46:22.979Z,70.40
2023-03-20T10:51:37.952Z,70.10
2023-03-20T10:56:46.465Z,69.60
2023-03-20T11:01:49.951Z,69.40
2023-03-20T11:07:03.342Z,69.20
2023-03-20T11:12:06.904Z,69.20
2023-03-20T11:17:13.193Z,69.20
2023-03-20T11:22:27.025Z,68.60
2023-03-20T11:27:33.003Z,68.10
2023-03-20T11:32:40.734Z,67.50
2023-03-20T11:37:47.886Z,66.90
2023-03-20T11:42:55.093Z,67.00
2023-03-20T11:47:58.971Z,66.00
2023-03-20T11:53:04.876Z,65.90
2023-03-20T11:58:16.612Z,63.80
2023-03-20T12:03:42.156Z,63.30
2023-03-20T12:08:53.135Z,63.10
2023-03-20T12:14:00.928Z,63.00
2023-03-20T12:19:10.743Z,62.80
2023-03-20T12:24:22.777Z,63.20
2023-03-20T12:29:33.092Z,62.20
2023-03-20T12:34:42.581Z,61.20
2023-03-20T12:39:53.271Z,61.90
2023-03-20T12:45:00.965Z,62.00
2023-03-20T12:50:12.612Z,60.30
2023-03-20T12:55:33.631Z,60.20
2023-03-20T13:00:42.566Z,59.90
2023-03-20T13:05:51.686Z,59.10
2023-03-20T13:11:05.017Z,58.10
2023-03-20T13:16:18.713Z,56.10
2023-03-20T13:21:29.676Z,55.20
2023-03-20T13:26:42.754Z,54.10
2023-03-20T13:31:55.306Z,54.50
2023-03-20T13:37:22.735Z,53.60
2023-03-20T13:42:33.967Z,52.90
2023-03-20T13:47:39.028Z,49.30
2023-03-20T13:52:48.413Z,50.10
2023-03-20T13:58:07.968Z,49.50
2023-03-20T14:03:28.457Z,50.80
2023-03-20T14:08:37.032Z,51.60
2023-03-20T14:13:47.521Z,52.10
2023-03-20T14:19:05.064Z,52.30
2023-03-20T14:24:14.453Z,52.60
2023-03-20T14:29:33.802Z,53.60
2023-03-20T14:34:47.525Z,54.40
2023-03-20T14:39:54.530Z,55.50
2023-03-20T14:45:26.128Z,57.60
2023-03-20T14:50:33.451Z,58.60
2023-03-20T14:55:52.159Z,55.70
2023-03-20T15:01:02.157Z,58.00
2023-03-20T15:06:08.623Z,59.40
2023-03-20T15:11:15.366Z,58.70
2023-03-20T15:16:28.420Z,55.90
2023-03-20T15:21:37.413Z,56.30
2023-03-20T15:26:41.227Z,56.60
2023-03-20T15:31:47.492Z,57.10
2023-03-20T15:36:52.996Z,57.30
2023-03-20T15:41:59.152Z,57.60
2023-03-20T15:47:12.401Z,57.80
2023-03-20T15:52:33.114Z,58.30
2023-03-20T15:57:39.521Z,58.80
2023-03-20T16:02:48.390Z,59.50
2023-03-20T16:07:52.476Z,60.00
2023-03-20T16:12:58.138Z,60.90
2023-03-20T16:18:07.118Z,61.70
2023-03-20T16:23:14.660Z,62.50
2023-03-20T16:28:18.370Z,63.10
2023-03-20T16:33:23.774Z,63.40
2023-03-20T16:38:29.698Z,63.70
2023-03-20T16:43:33.530Z,63.70
2023-03-20T16:48:39.275Z,63.80
2023-03-20T16:53:46.280Z,64.20
2023-03-20T16:58:50.260Z,64.30
2023-03-20T17:03:57.383Z,64.50
2023-03-20T17:09:03.661Z,65.20
2023-03-20T17:14:07.350Z,65.30
2023-03-20T17:19:17.689Z,66.00
2023-03-20T17:24:21.206Z,66.60
2023-03-20T17:29:24.749Z,67.00
2023-03-20T17:34:29.609Z,67.60
2023-03-20T17:39:33.072Z,67.60
2023-03-20T17:44:36.872Z,67.70
2023-03-20T17:49:41.907Z,67.90
2023-03-20T17:54:45.817Z,68.20
2023-03-20T17:59:50.160Z,68.50
2023-03-20T18:04:55.401Z,69.20
2023-03-20T18:09:58.832Z,70.80
2023-03-20T18:15:02.448Z,70.50
2023-03-20T18:20:13.080Z,70.10
2023-03-20T18:25:16.979Z,70.50
2023-03-20T18:30:22.880Z,70.30
2023-03-20T18:35:27.822Z,70.60
2023-03-20T18:40:33.940Z,71.10
2023-03-20T18:45:38.820Z,70.80
2023-03-20T18:50:44.031Z,70.30
2023-03-20T18:55:47.767Z,70.10
2023-03-20T19:00:53.602Z,70.00
2023-03-20T19:05:59.751Z,70.20
2023-03-20T19:11:03.711Z,70.40
2023-03-20T19:16:20.599Z,70.30
2023-03-20T19:21:26.646Z,70.10
2023-03-20T19:26:31.472Z,70.20
2023-03-20T19:31:34.971Z,70.20
2023-03-20T19:36:40.200Z,70.00
2023-03-20T19:41:44.003Z,69.80
2023-03-20T19:46:47.401Z,69.60
2023-03-20T19:51:52.229Z,69.60
2023-03-20T19:56:55.656Z,69.50
2023-03-20T20:01:59.147Z,69.60
2023-03-20T20:07:41.190Z,69.60
2023-03-20T20:12:28.247Z,69.60
2023-03-20T20:17:31.982Z,69.50
2023-03-20T20:22:37.331Z,69.60
2023-03-20T20:27:41.217Z,69.40
2023-03-20T20:32:44.853Z,69.90
2023-03-20T20:43:32.413Z,70.80
2023-03-20T20:48:37.657Z,70.90
2023-03-20T20:53:42.519Z,71.10
2023-03-20T20:58:46.244Z,71.60
2023-03-20T21:03:49.668Z,71.50
2023-03-20T21:08:54.486Z,71.40
2023-03-20T21:13:57.997Z,71.50
2023-03-20T21:19:01.477Z,71.70
2023-03-20T21:24:30.407Z,71.90
2023-03-20T21:29:35.143Z,72.00
2023-03-20T21:34:39.067Z,72.00
2023-03-20T21:39:44.118Z,72.00
2023-03-20T21:45:44.089Z,72.00
2023-03-20T22:01:45.894Z,72.00
2023-03-20T22:12:28.239Z,71.60
2023-03-20T22:23:26.305Z,71.20
2023-03-20T22:34:25.815Z,70.90
2023-03-20T22:49:38.398Z,70.50
2023-03-20T22:54:41.859Z,71.30
2023-03-20T22:59:46.578Z,70.30
2023-03-20T23:04:52.510Z,70.40
2023-03-20T23:09:55.950Z,70.50
2023-03-20T23:15:00.744Z,70.60
2023-03-20T23:20:12.630Z,70.70
2023-03-20T23:25:27.514Z,70.70
2023-03-20T23:30:48.221Z,70.80
2023-03-20T23:36:11.154Z,70.80
2023-03-20T23:41:20.162Z,70.90
2023-03-20T23:46:24.942Z,71.00
2023-03-20T23:51:28.344Z,71.20
2023-03-20T23:56:31.750Z,71.40
